Time;durP1;ratioP1;P1;durP2;ratioP2;P2;SDS_P1;SDS_P2;PMS_P1;PMS_P2;Temp;Humidity;BMP_temperature;BMP_pressure;BME280_temperature;BME280_humidity;BME280_pressure;Samples;Min_cycle;Max_cycle;Signal;HPM_P1;HPM_P2
2022/07/11 00:01:23;;;;;;;6.33;2.87;;;15.70;1.00;;;;;;6281551;28;20293;-54
2022/07/11 00:04:26;;;;;;;4.00;2.73;;;15.80;1.00;;;;;;6288039;28;20240;-56
2022/07/11 00:07:29;;;;;;;2.63;2.43;;;15.80;1.00;;;;;;6286906;28;20655;-54
2022/07/11 00:10:34;;;;;;;5.13;2.50;;;15.80;1.00;;;;;;6264555;28;20838;-53
2022/07/11 00:13:36;;;;;;;4.93;2.50;;;15.80;1.00;;;;;;6285354;28;20340;-50
2022/07/11 00:16:39;;;;;;;4.17;2.70;;;15.80;1.00;;;;;;6279598;28;20234;-52
2022/07/11 00:19:42;;;;;;;3.83;2.90;;;15.70;1.00;;;;;;6277010;28;20448;-54
2022/07/11 00:22:45;;;;;;;6.27;3.03;;;15.70;1.00;;;;;;6276699;28;20267;-55
2022/07/11 00:25:51;;;;;;;4.70;2.33;;;15.70;1.00;;;;;;6281591;28;20294;-53
2022/07/11 00:28:53;;;;;;;3.17;2.83;;;15.60;1.00;;;;;;6283580;28;20241;-53
2022/07/11 00:31:56;;;;;;;4.60;2.87;;;15.50;1.00;;;;;;6274881;28;20797;-55
2022/07/11 00:35:00;;;;;;;4.00;3.03;;;15.40;1.00;;;;;;6282785;28;20237;-54
2022/07/11 00:38:03;;;;;;;3.60;2.90;;;15.40;1.00;;;;;;6282343;28;20233;-53
2022/07/11 00:41:07;;;;;;;4.17;3.10;;;15.30;1.00;;;;;;6284335;28;20402;-55
2022/07/11 00:44:10;;;;;;;3.20;2.90;;;15.30;1.00;;;;;;6272061;28;20702;-53
2022/07/11 00:47:13;;;;;;;5.27;3.13;;;15.20;1.00;;;;;;6293827;28;20343;-55
2022/07/11 00:50:17;;;;;;;6.47;3.03;;;15.10;1.00;;;;;;6282870;28;20324;-55
2022/07/11 00:53:21;;;;;;;3.47;3.00;;;15.10;1.00;;;;;;6276959;28;20640;-53
2022/07/11 00:56:29;;;;;;;4.17;2.60;;;15.00;1.00;;;;;;6284845;28;20379;-55
2022/07/11 00:59:32;;;;;;;7.53;3.07;;;15.00;1.00;;;;;;6304474;28;20240;-54
2022/07/11 01:02:35;;;;;;;4.17;2.60;;;15.00;1.00;;;;;;6282520;28;20380;-55
2022/07/11 01:05:39;;;;;;;4.73;2.70;;;14.90;1.00;;;;;;6287170;28;20237;-54
2022/07/11 01:08:42;;;;;;;6.47;3.13;;;14.80;1.00;;;;;;6277639;28;20241;-54
2022/07/11 01:11:48;;;;;;;7.17;3.23;;;14.70;1.00;;;;;;6279391;28;20609;-54
2022/07/11 01:14:54;;;;;;;4.07;2.87;;;14.70;1.00;;;;;;6276891;28;20358;-54
2022/07/11 01:17:57;;;;;;;4.53;2.90;;;14.70;1.00;;;;;;6281642;28;20315;-55
2022/07/11 01:21:22;;;;;;;6.90;2.60;;;14.60;1.00;;;;;;6284296;28;20614;-55
2022/07/11 01:24:27;;;;;;;6.80;2.90;;;14.50;1.00;;;;;;6280437;28;20816;-54
2022/07/11 01:27:30;;;;;;;7.97;3.17;;;14.50;1.00;;;;;;6282016;28;20787;-55
2022/07/11 01:30:36;;;;;;;3.47;3.07;;;14.40;1.00;;;;;;6283199;28;20725;-53
2022/07/11 01:33:39;;;;;;;5.30;3.17;;;14.40;1.00;;;;;;6284747;28;20730;-54
2022/07/11 01:36:43;;;;;;;4.90;2.87;;;14.30;1.00;;;;;;6280659;28;20240;-53
2022/07/11 01:39:48;;;;;;;4.77;2.67;;;14.20;1.00;;;;;;6280347;28;20320;-54
2022/07/11 01:42:50;;;;;;;3.77;2.80;;;14.20;1.00;;;;;;6278510;28;20229;-54
2022/07/11 01:45:54;;;;;;;5.90;2.80;;;14.20;1.00;;;;;;6284539;28;20246;-54
2022/07/11 01:48:57;;;;;;;4.93;2.73;;;14.10;1.00;;;;;;6285962;28;20248;-54
2022/07/11 01:51:59;;;;;;;2.93;2.80;;;14.10;1.00;;;;;;6285417;28;20451;-54
2022/07/11 01:55:04;;;;;;;6.20;2.83;;;14.10;1.00;;;;;;6270980;28;20539;-54
2022/07/11 01:58:07;;;;;;;5.47;2.93;;;14.00;1.00;;;;;;6287790;28;20320;-55
2022/07/11 02:01:10;;;;;;;5.83;2.87;;;14.00;1.00;;;;;;6272080;28;20231;-54
2022/07/11 02:04:13;;;;;;;3.20;2.70;;;13.90;1.00;;;;;;6282710;28;20237;-54
2022/07/11 02:08:11;;;;;;;3.10;2.87;;;13.90;1.00;;;;;;6288044;28;20380;-55
2022/07/11 02:10:42;;;;;;;5.30;2.70;;;13.80;1.00;;;;;;6267454;28;20395;-54
2022/07/11 02:13:46;;;;;;;7.03;3.20;;;13.80;1.00;;;;;;6281955;28;20287;-55
2022/07/11 02:16:49;;;;;;;6.03;3.37;;;13.70;1.00;;;;;;6274696;28;20853;-54
2022/07/11 02:19:53;;;;;;;8.30;2.97;;;13.70;1.00;;;;;;6276979;28;20615;-54
2022/07/11 02:22:58;;;;;;;6.93;3.17;;;13.70;1.00;;;;;;6272935;28;20367;-54
2022/07/11 02:26:02;;;;;;;9.80;3.23;;;13.70;1.00;;;;;;6287329;28;20234;-53
2022/07/11 02:29:05;;;;;;;8.10;3.03;;;13.70;1.00;;;;;;6296990;28;20668;-54
2022/07/11 02:32:08;;;;;;;5.20;3.23;;;13.60;1.00;;;;;;6284432;28;20237;-54
2022/07/11 02:35:11;;;;;;;6.67;3.00;;;13.60;1.00;;;;;;6280622;28;20234;-54
2022/07/11 02:38:14;;;;;;;4.87;3.03;;;13.50;1.00;;;;;;6272428;28;20480;-54
2022/07/11 02:41:19;;;;;;;4.17;2.80;;;13.50;1.00;;;;;;6279192;28;20233;-55
2022/07/11 02:44:25;;;;;;;4.87;3.13;;;13.50;1.00;;;;;;6270310;28;20241;-55
2022/07/11 02:47:28;;;;;;;8.20;3.27;;;13.40;1.00;;;;;;6267325;28;20335;-54
2022/07/11 02:50:32;;;;;;;4.83;2.90;;;13.40;1.00;;;;;;6273554;28;20277;-54
2022/07/11 02:53:35;;;;;;;4.37;3.03;;;13.40;1.00;;;;;;6282305;28;20724;-54
2022/07/11 02:56:39;;;;;;;6.73;3.00;;;13.30;1.00;;;;;;6292707;28;20628;-55
2022/07/11 02:59:43;;;;;;;3.23;3.00;;;13.20;1.00;;;;;;6281166;28;20230;-54
2022/07/11 03:02:47;;;;;;;9.80;3.20;;;13.20;1.00;;;;;;6283197;28;20523;-55
2022/07/11 03:05:50;;;;;;;5.07;3.60;;;13.20;1.00;;;;;;6272985;28;20319;-53
2022/07/11 03:08:52;;;;;;;4.97;3.13;;;13.10;1.00;;;;;;6275285;28;20662;-53
2022/07/11 03:11:57;;;;;;;6.40;3.00;;;13.10;1.00;;;;;;6279402;28;20882;-55
2022/07/11 03:14:59;;;;;;;5.33;3.13;;;13.10;1.00;;;;;;6277521;28;20231;-53
2022/07/11 03:18:02;;;;;;;6.80;3.40;;;13.10;1.00;;;;;;6277993;28;20233;-55
2022/07/11 03:21:06;;;;;;;5.87;3.40;;;13.10;1.00;;;;;;6280601;28;20322;-54
2022/07/11 03:24:08;;;;;;;5.50;3.37;;;13.10;1.00;;;;;;6272726;28;20244;-55
2022/07/11 03:27:13;;;;;;;7.90;3.30;;;13.10;1.00;;;;;;6282672;28;20453;-53
2022/07/11 03:30:16;;;;;;;5.87;3.37;;;13.10;1.00;;;;;;6276363;28;20235;-54
2022/07/11 03:33:19;;;;;;;3.43;3.17;;;13.00;1.00;;;;;;6258413;28;20359;-54
2022/07/11 03:36:22;;;;;;;8.50;3.60;;;13.00;1.00;;;;;;6272797;28;20323;-55
2022/07/11 03:39:25;;;;;;;6.47;3.00;;;13.00;1.00;;;;;;6255353;28;20359;-54
2022/07/11 03:42:30;;;;;;;5.07;3.20;;;13.00;1.00;;;;;;6276811;28;20299;-54
2022/07/11 03:45:32;;;;;;;4.57;3.27;;;12.90;1.00;;;;;;6272765;28;20312;-54
2022/07/11 03:48:36;;;;;;;4.93;2.63;;;12.90;1.00;;;;;;6280691;28;20248;-53
2022/07/11 03:51:38;;;;;;;5.87;3.20;;;13.00;1.00;;;;;;6268079;28;20578;-54
2022/07/11 03:54:43;;;;;;;4.77;3.03;;;12.90;1.00;;;;;;6286330;28;20295;-54
2022/07/11 03:57:47;;;;;;;8.37;3.27;;;12.90;1.00;;;;;;6278428;28;20786;-54
2022/07/11 04:00:57;;;;;;;7.20;3.30;;;12.90;1.00;;;;;;6272478;28;20225;-54
2022/07/11 04:03:59;;;;;;;9.63;3.53;;;13.00;1.00;;;;;;6274953;28;20711;-56
2022/07/11 04:07:02;;;;;;;5.17;3.00;;;12.90;1.00;;;;;;6270311;28;20542;-54
2022/07/11 04:10:06;;;;;;;6.10;3.40;;;12.90;1.00;;;;;;6272498;28;20250;-54
2022/07/11 04:13:11;;;;;;;3.40;3.10;;;12.90;1.00;;;;;;6277646;28;20267;-55
2022/07/11 04:16:14;;;;;;;8.63;3.57;;;12.90;1.00;;;;;;6274904;28;20930;-55
2022/07/11 04:19:17;;;;;;;3.73;3.43;;;13.00;1.00;;;;;;6281545;28;20225;-55
2022/07/11 04:22:19;;;;;;;7.37;3.30;;;13.00;1.00;;;;;;6269437;28;20240;-53
2022/07/11 04:25:23;;;;;;;6.10;3.50;;;13.00;1.00;;;;;;6285157;28;20237;-55
2022/07/11 04:28:27;;;;;;;11.83;3.83;;;13.00;1.00;;;;;;6278798;28;20392;-55
2022/07/11 04:31:30;;;;;;;5.97;3.43;;;13.00;1.00;;;;;;6279763;28;20508;-55
2022/07/11 04:34:34;;;;;;;9.17;3.60;;;13.10;1.00;;;;;;6278736;28;20375;-55
2022/07/11 04:37:38;;;;;;;9.60;3.60;;;13.10;1.00;;;;;;6271145;28;20237;-54
2022/07/11 04:40:40;;;;;;;3.43;3.30;;;13.10;1.00;;;;;;6287200;28;20283;-55
2022/07/11 04:43:45;;;;;;;4.87;3.80;;;13.10;1.00;;;;;;6290969;28;20442;-55
2022/07/11 04:46:48;;;;;;;3.93;3.43;;;13.20;1.00;;;;;;6282849;28;20236;-55
2022/07/11 04:49:51;;;;;;;4.20;3.03;;;13.30;1.00;;;;;;6278559;28;20229;-53
2022/07/11 04:52:54;;;;;;;8.87;3.83;;;13.30;1.00;;;;;;6279938;28;20288;-55
2022/07/11 04:55:57;;;;;;;6.13;3.23;;;13.30;1.00;;;;;;6288922;28;20328;-54
2022/07/11 04:59:02;;;;;;;6.20;3.87;;;13.50;1.00;;;;;;6274243;28;20319;-54
2022/07/11 05:02:05;;;;;;;8.83;3.43;;;13.50;1.00;;;;;;6277844;28;20516;-54
2022/07/11 05:05:09;;;;;;;6.23;3.47;;;13.70;1.00;;;;;;6283954;28;20248;-53
2022/07/11 05:08:12;;;;;;;4.63;3.27;;;13.90;1.00;;;;;;6280092;28;20511;-54
2022/07/11 05:11:15;;;;;;;6.77;3.73;;;14.10;1.00;;;;;;6278705;28;20435;-54
2022/07/11 05:14:19;;;;;;;3.40;2.97;;;14.30;1.00;;;;;;6288590;28;20299;-55
2022/07/11 05:17:23;;;;;;;4.53;3.30;;;14.40;1.00;;;;;;6288377;28;20616;-55
2022/07/11 05:20:26;;;;;;;4.43;3.40;;;14.60;1.00;;;;;;6290787;28;20336;-54
2022/07/11 05:23:29;;;;;;;8.33;3.20;;;14.90;1.00;;;;;;6287724;28;20327;-55
2022/07/11 05:26:32;;;;;;;8.77;3.73;;;15.00;1.00;;;;;;6279790;28;20852;-55
2022/07/11 05:29:37;;;;;;;4.83;3.03;;;15.20;1.00;;;;;;6291457;28;20249;-54
2022/07/11 05:32:40;;;;;;;4.30;3.50;;;15.60;1.00;;;;;;6279957;28;20942;-55
2022/07/11 05:35:43;;;;;;;4.97;2.97;;;15.90;1.00;;;;;;6282571;28;20324;-53
2022/07/11 05:38:46;;;;;;;7.00;3.40;;;16.20;1.00;;;;;;6279817;28;20336;-55
2022/07/11 05:41:51;;;;;;;9.63;3.23;;;16.40;1.00;;;;;;6281765;28;20239;-55
2022/07/11 05:44:55;;;;;;;6.90;2.97;;;16.40;1.00;;;;;;6285848;28;20375;-53
2022/07/11 05:48:02;;;;;;;11.93;3.03;;;16.60;1.00;;;;;;6281723;28;20378;-54
2022/07/11 05:51:05;;;;;;;6.30;3.23;;;16.90;1.00;;;;;;6283232;28;20472;-54
2022/07/11 05:54:08;;;;;;;8.37;2.97;;;17.00;1.00;;;;;;6281150;28;20484;-54
2022/07/11 05:57:17;;;;;;;3.43;3.13;;;17.30;1.00;;;;;;6286629;28;20756;-55
2022/07/11 06:00:22;;;;;;;5.03;3.10;;;17.60;1.00;;;;;;6291065;28;20354;-54
2022/07/11 06:03:25;;;;;;;3.30;2.30;;;17.80;1.00;;;;;;6284773;28;20356;-54
2022/07/11 06:06:28;;;;;;;6.60;3.00;;;18.00;1.00;;;;;;6293238;28;20678;-57
2022/07/11 06:09:31;;;;;;;6.03;2.80;;;18.20;1.00;;;;;;6287579;28;20412;-53
2022/07/11 06:12:35;;;;;;;4.00;2.83;;;18.20;1.00;;;;;;6282356;28;20237;-54
2022/07/11 06:15:39;;;;;;;6.73;2.67;;;18.50;1.00;;;;;;6285009;28;20233;-55
2022/07/11 06:18:44;;;;;;;7.33;2.63;;;18.50;1.00;;;;;;6276695;28;20241;-54
2022/07/11 06:21:47;;;;;;;4.77;2.77;;;18.60;1.00;;;;;;6282697;28;20631;-55
2022/07/11 06:24:50;;;;;;;5.27;2.97;;;18.80;1.00;;;;;;6280335;28;20664;-54
2022/07/11 06:27:53;;;;;;;4.47;2.47;;;19.00;1.00;;;;;;6281875;28;20233;-53
2022/07/11 06:30:57;;;;;;;4.93;2.97;;;19.10;1.00;;;;;;6279269;28;20241;-54
2022/07/11 06:34:00;;;;;;;7.00;2.80;;;19.30;1.00;;;;;;6281726;28;20241;-54
2022/07/11 06:37:04;;;;;;;4.43;2.70;;;19.70;1.00;;;;;;6287664;28;20305;-54
2022/07/11 06:40:10;;;;;;;3.50;2.57;;;20.00;1.00;;;;;;6275963;28;20241;-53
2022/07/11 06:43:14;;;;;;;6.40;3.10;;;20.00;1.00;;;;;;6279818;28;20755;-53
2022/07/11 06:46:18;;;;;;;5.23;2.73;;;20.00;1.00;;;;;;6286399;28;20229;-55
2022/07/11 06:49:21;;;;;;;6.90;3.20;;;20.00;1.00;;;;;;6281148;28;20335;-54
2022/07/11 06:52:24;;;;;;;9.00;3.60;;;20.10;1.00;;;;;;6280530;28;20241;-54
2022/07/11 06:55:27;;;;;;;6.83;2.80;;;20.20;1.00;;;;;;6280990;28;20228;-54
2022/07/11 06:58:32;;;;;;;7.13;3.00;;;20.30;1.00;;;;;;6286016;28;20241;-55
2022/07/11 07:01:37;;;;;;;6.57;3.20;;;20.40;1.00;;;;;;6278934;28;20244;-55
2022/07/11 07:04:40;;;;;;;4.43;2.80;;;20.40;1.00;;;;;;6282741;28;20241;-55
2022/07/11 07:07:43;;;;;;;8.83;3.20;;;20.50;1.00;;;;;;6291707;28;20329;-53
2022/07/11 07:10:47;;;;;;;4.67;2.43;;;20.60;1.00;;;;;;6277782;28;20309;-54
2022/07/11 07:13:51;;;;;;;3.97;2.87;;;20.90;1.00;;;;;;6290794;28;20382;-54
2022/07/11 07:16:56;;;;;;;3.30;2.60;;;21.00;1.00;;;;;;6286077;28;20248;-54
2022/07/11 07:20:00;;;;;;;6.17;3.03;;;21.20;1.00;;;;;;6284514;28;20705;-54
2022/07/11 07:23:03;;;;;;;5.67;2.83;;;21.10;1.00;;;;;;6276689;28;20243;-55
2022/07/11 07:26:06;;;;;;;8.10;2.77;;;21.10;1.00;;;;;;6278180;28;20475;-54
2022/07/11 07:29:13;;;;;;;8.03;3.00;;;21.00;1.00;;;;;;6286362;28;20328;-55
2022/07/11 07:32:17;;;;;;;10.43;3.07;;;20.70;1.00;;;;;;6274793;28;20817;-52
2022/07/11 07:35:20;;;;;;;5.30;2.77;;;20.60;1.00;;;;;;6276069;28;20325;-54
2022/07/11 07:38:23;;;;;;;4.70;2.50;;;20.40;1.00;;;;;;6278827;28;20283;-55
2022/07/11 07:41:32;;;;;;;5.53;2.80;;;20.10;1.00;;;;;;6282905;28;20241;-54
2022/07/11 07:44:35;;;;;;;6.73;2.90;;;20.10;1.00;;;;;;6263651;28;20753;-55
2022/07/11 07:47:40;;;;;;;7.60;3.20;;;20.10;1.00;;;;;;6277637;28;20711;-55
2022/07/11 07:50:43;;;;;;;5.47;3.00;;;19.70;1.00;;;;;;6262837;28;20387;-55
2022/07/11 07:53:46;;;;;;;9.37;3.70;;;19.30;1.00;;;;;;6284769;28;20544;-55
2022/07/11 07:56:57;;;;;;;4.53;3.00;;;19.20;1.00;;;;;;6283578;28;20765;-55
2022/07/11 08:03:19;;;;;;;9.30;3.33;;;18.90;1.00;;;;;;6284279;28;20383;-53
2022/07/11 08:06:22;;;;;;;5.90;2.60;;;19.00;1.00;;;;;;6288404;28;20290;-56
2022/07/11 08:09:25;;;;;;;5.53;2.80;;;18.90;1.00;;;;;;6288246;28;20418;-57
2022/07/11 08:12:32;;;;;;;6.30;2.90;;;19.00;1.00;;;;;;6280268;28;20402;-54
2022/07/11 08:15:34;;;;;;;6.07;2.93;;;19.00;1.00;;;;;;6283287;28;20331;-54
2022/07/11 08:18:39;;;;;;;8.33;3.20;;;18.90;1.00;;;;;;6286719;28;20813;-55
2022/07/11 08:21:42;;;;;;;8.20;3.13;;;18.90;1.00;;;;;;6282857;28;20651;-55
2022/07/11 08:24:45;;;;;;;5.53;2.70;;;18.90;1.00;;;;;;6279601;28;20234;-54
2022/07/11 08:27:48;;;;;;;6.67;3.17;;;19.10;1.00;;;;;;6286135;28;20257;-55
2022/07/11 08:30:51;;;;;;;6.80;5.17;;;19.30;1.00;;;;;;6283430;28;20298;-54
2022/07/11 08:33:57;;;;;;;6.03;2.60;;;19.40;1.00;;;;;;6279796;28;20743;-54
2022/07/11 08:37:00;;;;;;;7.33;2.87;;;19.40;1.00;;;;;;6293098;28;20240;-55
2022/07/11 08:40:04;;;;;;;6.67;2.70;;;19.30;1.00;;;;;;6284263;28;20623;-54
2022/07/11 08:43:14;;;;;;;4.57;2.50;;;19.40;1.00;;;;;;6281953;28;20238;-56
2022/07/11 08:46:20;;;;;;;4.70;2.53;;;19.30;1.00;;;;;;6293103;28;20229;-55
2022/07/11 08:49:25;;;;;;;3.93;2.40;;;19.10;1.00;;;;;;6293417;28;20264;-55
2022/07/11 08:52:29;;;;;;;5.30;2.77;;;19.30;1.00;;;;;;6280635;28;20236;-57
2022/07/11 08:55:34;;;;;;;6.37;2.83;;;19.60;1.00;;;;;;6288129;28;20631;-55
2022/07/11 08:58:37;;;;;;;4.60;2.57;;;19.70;1.00;;;;;;6294334;28;20378;-55
2022/07/11 09:01:45;;;;;;;5.27;2.40;;;19.90;1.00;;;;;;6277762;28;20237;-55
2022/07/11 09:04:49;;;;;;;4.27;2.50;;;20.30;1.00;;;;;;6286936;28;20233;-55
2022/07/11 09:07:52;;;;;;;4.23;2.37;;;20.40;1.00;;;;;;6283936;28;20264;-55
2022/07/11 09:10:55;;;;;;;4.53;3.03;;;20.50;1.00;;;;;;6278474;28;20259;-55
2022/07/11 09:13:58;;;;;;;4.17;2.40;;;20.90;1.00;;;;;;6284234;28;20404;-54
2022/07/11 09:17:02;;;;;;;2.50;2.33;;;20.90;1.00;;;;;;6271671;28;20244;-54
2022/07/11 09:20:08;;;;;;;4.00;2.60;;;20.90;1.00;;;;;;6278715;28;20236;-55
2022/07/11 09:26:42;;;;;;;3.00;2.70;;;21.00;1.00;;;;;;6281906;28;20292;-56
2022/07/11 09:29:45;;;;;;;6.60;2.53;;;21.20;1.00;;;;;;6293457;28;20269;-58
2022/07/11 09:32:56;;;;;;;4.73;2.60;;;21.20;1.00;;;;;;6279772;28;20259;-55
2022/07/11 09:36:04;;;;;;;4.50;2.33;;;21.30;1.00;;;;;;6283744;28;20355;-54
2022/07/11 09:39:09;;;;;;;6.67;2.40;;;21.40;1.00;;;;;;6275633;28;20245;-55
2022/07/11 09:42:12;;;;;;;4.23;2.40;;;21.20;1.00;;;;;;6281863;28;20257;-56
2022/07/11 09:45:16;;;;;;;2.53;2.30;;;21.50;1.00;;;;;;6288878;28;20233;-54
2022/07/11 09:48:19;;;;;;;3.50;2.33;;;21.80;1.00;;;;;;6278162;28;20238;-56
2022/07/11 09:51:24;;;;;;;2.83;2.07;;;22.00;1.00;;;;;;6280405;28;20270;-53
2022/07/11 09:54:26;;;;;;;2.13;2.03;;;22.10;1.00;;;;;;6288223;28;20241;-54
2022/07/11 09:57:31;;;;;;;3.30;2.13;;;22.00;1.00;;;;;;6278286;28;20320;-54
2022/07/11 10:00:35;;;;;;;3.27;2.57;;;22.10;1.00;;;;;;6284741;28;20223;-53
2022/07/11 10:03:41;;;;;;;1.57;1.47;;;22.10;1.00;;;;;;6283425;28;20371;-55
2022/07/11 10:07:01;;;;;;;2.47;1.67;;;22.00;1.00;;;;;;6281998;28;20240;-56
2022/07/11 10:10:06;;;;;;;6.60;2.20;;;22.00;1.00;;;;;;6280835;28;20698;-55
2022/07/11 10:13:10;;;;;;;2.23;1.67;;;22.10;1.00;;;;;;6279082;28;20244;-55
2022/07/11 10:16:23;;;;;;;2.33;2.27;;;21.90;1.00;;;;;;6285549;28;20271;-54
2022/07/11 10:19:35;;;;;;;2.03;1.93;;;22.10;1.00;;;;;;6280872;28;20245;-56
2022/07/11 10:22:44;;;;;;;3.67;2.00;;;22.40;1.00;;;;;;6267917;28;20245;-56
2022/07/11 10:25:52;;;;;;;5.93;2.40;;;22.40;1.00;;;;;;6282550;28;20279;-54
2022/07/11 10:29:02;;;;;;;1.97;1.83;;;22.30;1.00;;;;;;6274398;28;20221;-54
2022/07/11 10:32:07;;;;;;;3.10;2.23;;;21.90;1.00;;;;;;6275431;28;20282;-53
2022/07/11 10:35:17;;;;;;;2.40;2.00;;;22.00;1.00;;;;;;6274608;28;20489;-54
2022/07/11 10:38:23;;;;;;;2.10;1.80;;;22.20;1.00;;;;;;6274255;28;20241;-55
2022/07/11 10:41:26;;;;;;;1.97;1.87;;;22.20;1.00;;;;;;6279173;28;20847;-54
2022/07/11 10:44:47;;;;;;;2.03;1.90;;;22.20;1.00;;;;;;6282927;28;20331;-55
2022/07/11 10:47:50;;;;;;;3.87;2.70;;;22.30;1.00;;;;;;6273186;28;20237;-55
2022/07/11 10:51:17;;;;;;;1.80;1.70;;;22.30;1.00;;;;;;6273943;28;20874;-55
2022/07/11 10:54:36;;;;;;;3.07;1.80;;;22.40;1.00;;;;;;6273832;28;20230;-55
2022/07/11 10:57:49;;;;;;;4.30;2.00;;;22.50;1.00;;;;;;6276889;28;20344;-55
2022/07/11 11:01:09;;;;;;;2.47;2.27;;;22.40;1.00;;;;;;6276189;28;20679;-54
2022/07/11 11:04:48;;;;;;;1.80;1.70;;;22.50;1.00;;;;;;6272318;28;20692;-55
2022/07/11 11:07:51;;;;;;;3.47;1.73;;;22.60;1.00;;;;;;6270524;28;20246;-55
2022/07/11 11:10:56;;;;;;;2.23;1.60;;;22.70;1.00;;;;;;6282552;28;20391;-53
2022/07/11 11:14:26;;;;;;;2.77;1.70;;;22.80;1.00;;;;;;6285438;28;20233;-55
2022/07/11 11:17:38;;;;;;;2.40;1.80;;;23.00;1.00;;;;;;6274784;28;20347;-54
2022/07/11 11:20:41;;;;;;;2.43;1.67;;;23.10;1.00;;;;;;6259885;28;20555;-55
2022/07/11 11:23:46;;;;;;;2.43;2.23;;;23.20;1.00;;;;;;6284747;28;20240;-55
2022/07/11 11:26:54;;;;;;;2.30;2.20;;;23.20;1.00;;;;;;6281921;28;20234;-55
2022/07/11 11:29:57;;;;;;;2.07;2.07;;;23.50;1.00;;;;;;6283524;28;20326;-54
2022/07/11 11:33:15;;;;;;;1.97;1.70;;;23.30;1.00;;;;;;6282152;28;20237;-55
2022/07/11 11:36:20;;;;;;;2.00;1.90;;;23.20;1.00;;;;;;6284542;28;20225;-52
2022/07/11 11:39:28;;;;;;;1.87;1.77;;;23.10;1.00;;;;;;6282293;28;20323;-54
2022/07/11 11:42:32;;;;;;;4.27;1.77;;;22.90;1.00;;;;;;6284545;28;20318;-54
2022/07/11 11:45:36;;;;;;;1.80;1.80;;;23.20;1.00;;;;;;6287819;28;20394;-55
2022/07/11 11:48:45;;;;;;;1.80;1.70;;;23.30;1.00;;;;;;6287770;28;20343;-54
2022/07/11 11:51:48;;;;;;;2.20;2.10;;;23.50;1.00;;;;;;6273184;28;20485;-54
2022/07/11 11:54:53;;;;;;;3.40;2.37;;;23.50;1.00;;;;;;6289282;28;20262;-54
2022/07/11 11:57:58;;;;;;;2.03;1.93;;;23.60;1.00;;;;;;6281252;28;20234;-55
2022/07/11 12:01:06;;;;;;;1.70;1.63;;;23.40;1.00;;;;;;6284809;28;20401;-53
2022/07/11 12:04:12;;;;;;;2.20;1.67;;;23.30;1.00;;;;;;6289982;28;20236;-55
2022/07/11 12:07:24;;;;;;;2.60;2.23;;;23.40;1.00;;;;;;6281013;28;20240;-54
2022/07/11 12:10:27;;;;;;;3.63;2.40;;;23.60;1.00;;;;;;6279824;28;20363;-54
2022/07/11 12:13:36;;;;;;;2.10;2.00;;;23.90;1.00;;;;;;6289492;28;20257;-56
2022/07/11 12:16:42;;;;;;;1.87;1.77;;;23.80;1.00;;;;;;6285231;28;20716;-54
2022/07/11 12:19:54;;;;;;;1.93;1.70;;;23.60;1.00;;;;;;6286891;28;20383;-53
2022/07/11 12:22:57;;;;;;;2.97;1.90;;;23.20;1.00;;;;;;6275787;28;20256;-54
2022/07/11 12:26:00;;;;;;;1.83;1.73;;;23.10;1.00;;;;;;6289373;28;20229;-56
2022/07/11 12:29:07;;;;;;;4.37;1.80;;;23.10;1.00;;;;;;6274738;28;20344;-54
2022/07/11 12:32:13;;;;;;;1.90;1.80;;;23.30;1.00;;;;;;6280924;28;20321;-52
2022/07/11 12:35:16;;;;;;;3.90;1.80;;;23.60;1.00;;;;;;6286891;28;20506;-53
2022/07/11 12:38:21;;;;;;;2.47;2.37;;;23.70;1.00;;;;;;6284455;28;20351;-54
2022/07/11 12:41:24;;;;;;;3.03;1.93;;;23.70;1.00;;;;;;6283688;28;20333;-53
2022/07/11 12:47:52;;;;;;;2.23;2.07;;;23.40;1.00;;;;;;6274907;28;20714;-54
2022/07/11 12:50:56;;;;;;;2.33;1.87;;;23.60;1.00;;;;;;6279569;28;20628;-52
2022/07/11 12:54:03;;;;;;;2.83;1.67;;;23.80;1.00;;;;;;6276860;28;20729;-54
2022/07/11 12:57:07;;;;;;;2.27;1.83;;;24.00;1.00;;;;;;6288739;28;20320;-55
2022/07/11 13:00:17;;;;;;;1.83;1.83;;;24.00;1.00;;;;;;6284711;28;20730;-51
2022/07/11 13:03:28;;;;;;;2.07;1.80;;;24.30;1.00;;;;;;6289137;28;20232;-53
2022/07/11 13:10:04;;;;;;;4.00;1.60;;;24.10;1.00;;;;;;6275371;28;20234;-55
2022/07/11 13:13:06;;;;;;;2.37;1.80;;;24.10;1.00;;;;;;6281657;28;20317;-53
2022/07/11 13:16:12;;;;;;;2.47;1.80;;;24.10;1.00;;;;;;6288191;28;20733;-54
2022/07/11 13:19:15;;;;;;;2.37;1.90;;;24.10;1.00;;;;;;6280045;28;20236;-53
2022/07/11 13:22:18;;;;;;;2.13;1.70;;;24.10;1.00;;;;;;6275634;28;20797;-54
2022/07/11 13:25:23;;;;;;;1.80;1.80;;;24.00;1.00;;;;;;6293894;28;20704;-53
2022/07/11 13:28:26;;;;;;;2.10;1.90;;;23.90;1.00;;;;;;6292257;28;20264;-54
2022/07/11 13:31:30;;;;;;;1.50;1.50;;;23.90;1.00;;;;;;6284586;28;20803;-54
2022/07/11 13:34:33;;;;;;;2.10;1.90;;;24.10;1.00;;;;;;6283598;28;20803;-53
2022/07/11 13:37:40;;;;;;;1.87;1.80;;;24.20;1.00;;;;;;6275419;28;20265;-53
2022/07/11 13:40:43;;;;;;;1.93;1.93;;;24.40;1.00;;;;;;6280364;28;20328;-55
2022/07/11 13:43:52;;;;;;;1.70;1.70;;;24.30;1.00;;;;;;6291830;28;20319;-54
2022/07/11 13:46:57;;;;;;;1.87;1.77;;;24.10;1.00;;;;;;6284275;28;20225;-54
2022/07/11 13:50:02;;;;;;;2.73;1.70;;;23.90;1.00;;;;;;6286443;28;20399;-55
2022/07/11 13:53:05;;;;;;;2.70;1.63;;;23.90;1.00;;;;;;6275158;28;20233;-54
2022/07/11 13:56:09;;;;;;;2.37;2.27;;;23.90;1.00;;;;;;6281984;28;20328;-53
2022/07/11 13:59:12;;;;;;;2.00;1.90;;;24.00;1.00;;;;;;6284383;28;20237;-53
2022/07/11 14:02:16;;;;;;;2.07;1.97;;;24.10;1.00;;;;;;6278981;28;20332;-54
2022/07/11 14:05:20;;;;;;;1.97;1.77;;;24.40;1.00;;;;;;6277306;28;20249;-54
2022/07/11 14:08:23;;;;;;;2.17;1.90;;;24.50;1.00;;;;;;6279936;28;20394;-55
2022/07/11 14:11:25;;;;;;;2.27;2.20;;;24.60;1.00;;;;;;6276814;28;20316;-53
2022/07/11 14:14:29;;;;;;;2.07;1.80;;;24.50;1.00;;;;;;6286008;28;20235;-54
2022/07/11 14:17:36;;;;;;;2.97;1.93;;;24.60;1.00;;;;;;6275829;28;20248;-54
2022/07/11 14:20:39;;;;;;;3.27;2.10;;;24.40;1.00;;;;;;6274558;28;20746;-53
2022/07/11 14:23:42;;;;;;;3.23;2.33;;;24.20;1.00;;;;;;6285722;28;20722;-54
2022/07/11 14:26:45;;;;;;;2.07;2.00;;;24.10;1.00;;;;;;6273692;28;20317;-53
2022/07/11 14:29:49;;;;;;;2.50;1.90;;;24.10;1.00;;;;;;6281835;28;20384;-52
2022/07/11 14:32:53;;;;;;;2.30;1.67;;;24.00;1.00;;;;;;6274331;28;20324;-55
2022/07/11 14:35:56;;;;;;;1.53;1.53;;;23.90;1.00;;;;;;6277015;28;20818;-55
2022/07/11 14:38:59;;;;;;;1.80;1.67;;;23.90;1.00;;;;;;6274220;28;20663;-54
2022/07/11 14:42:04;;;;;;;2.23;1.70;;;23.80;1.00;;;;;;6283827;28;20333;-53
2022/07/11 14:45:27;;;;;;;1.90;1.80;;;23.80;1.00;;;;;;6270742;28;20238;-53
2022/07/11 14:48:40;;;;;;;2.10;2.00;;;23.70;1.00;;;;;;6273862;28;20326;-54
2022/07/11 14:51:43;;;;;;;1.77;1.70;;;23.70;1.00;;;;;;6273351;28;20241;-54
2022/07/11 14:55:00;;;;;;;2.73;1.93;;;23.60;1.00;;;;;;6269367;28;20227;-57
2022/07/11 14:58:04;;;;;;;1.87;1.77;;;23.60;1.00;;;;;;6262000;28;20279;-54
2022/07/11 15:01:07;;;;;;;1.70;1.60;;;23.60;1.00;;;;;;6273610;28;20448;-55
2022/07/11 15:04:11;;;;;;;2.10;2.10;;;23.80;1.00;;;;;;6282862;28;20717;-58
2022/07/11 15:14:00;;;;;;;3.03;1.87;;;24.60;1.00;;;;;;6282570;28;20240;-54
2022/07/11 15:17:03;;;;;;;2.13;1.83;;;24.70;1.00;;;;;;6286425;28;20564;-54
2022/07/11 15:20:09;;;;;;;2.20;1.87;;;24.70;1.00;;;;;;6277276;28;20237;-56
2022/07/11 15:23:12;;;;;;;2.10;1.97;;;24.80;1.00;;;;;;6282263;28;20705;-54
2022/07/11 15:26:16;;;;;;;2.60;1.80;;;24.80;1.00;;;;;;6288392;28;20674;-54
2022/07/11 15:29:19;;;;;;;1.80;1.70;;;24.70;1.00;;;;;;6285600;28;20232;-56
2022/07/11 15:32:22;;;;;;;2.17;2.07;;;24.60;1.00;;;;;;6285311;28;20244;-54
2022/07/11 15:35:26;;;;;;;2.03;2.00;;;24.40;1.00;;;;;;6281917;28;20478;-55
2022/07/11 15:38:29;;;;;;;3.33;1.87;;;24.00;1.00;;;;;;6266708;28;20686;-55
2022/07/11 15:41:32;;;;;;;2.13;1.97;;;23.80;1.00;;;;;;6279790;28;20373;-55
2022/07/11 15:44:35;;;;;;;2.33;1.97;;;23.80;1.00;;;;;;6277895;28;20238;-54
2022/07/11 15:47:38;;;;;;;5.70;2.17;;;23.70;1.00;;;;;;6274297;28;20305;-55
2022/07/11 15:50:43;;;;;;;2.17;2.07;;;23.70;1.00;;;;;;6259401;28;20317;-54
2022/07/11 15:53:46;;;;;;;2.73;2.07;;;23.80;1.00;;;;;;6273552;28;20557;-56
2022/07/11 15:56:49;;;;;;;1.80;1.70;;;23.80;1.00;;;;;;6282707;28;20339;-54
2022/07/11 15:59:52;;;;;;;2.10;2.00;;;23.70;1.00;;;;;;6279508;28;20446;-54
2022/07/11 16:02:55;;;;;;;1.30;1.30;;;23.60;1.00;;;;;;6282459;28;20367;-54
2022/07/11 16:06:01;;;;;;;2.13;1.87;;;23.50;1.00;;;;;;6283256;28;20226;-54
2022/07/11 16:09:04;;;;;;;3.40;1.80;;;23.40;1.00;;;;;;6273663;28;20815;-54
2022/07/11 16:12:07;;;;;;;4.67;1.97;;;23.30;1.00;;;;;;6279973;28;20260;-55
2022/07/11 16:15:10;;;;;;;2.17;2.07;;;23.30;1.00;;;;;;6287418;28;20244;-56
2022/07/11 16:18:14;;;;;;;2.30;2.20;;;23.10;1.00;;;;;;6282391;28;20321;-55
2022/07/11 16:21:20;;;;;;;1.70;1.60;;;23.00;1.00;;;;;;6277726;28;20287;-55
2022/07/11 16:24:23;;;;;;;1.50;1.50;;;23.00;1.00;;;;;;6287208;28;20241;-55
2022/07/11 16:27:26;;;;;;;5.77;1.90;;;23.00;1.00;;;;;;6287950;28;20229;-54
2022/07/11 16:30:32;;;;;;;2.10;2.00;;;22.90;1.00;;;;;;6273846;28;20250;-54
2022/07/11 16:33:36;;;;;;;1.87;1.77;;;22.90;1.00;;;;;;6280806;28;20321;-54
2022/07/11 16:36:44;;;;;;;1.77;1.67;;;22.80;1.00;;;;;;6276588;28;20261;-54